Home > Products > Valid Products > TAF

000
FTUS45 KGJT 011736
TAFGJT
TAF
KGJT 011736Z 0118/0218 24005KT P6SM FEW120 BKN200
     FM012000 24008KT P6SM SCT100 BKN150
     FM012300 16008KT P6SM VCTS BKN100CB
     FM020300 11014KT P6SM BKN100
     FM020900 12007KT P6SM BKN120=



000
FTUS45 KGJT 011736
TAFGJT
TAF
KGJT 011736Z 0118/0218 24005KT P6SM FEW120 BKN200
     FM012000 24008KT P6SM SCT100 BKN150
     FM012300 16008KT P6SM VCTS BKN100CB
     FM020300 11014KT P6SM BKN100
     FM020900 12007KT P6SM BKN120=



000
FTUS45 KGJT 011736
TAFGJT
TAF
KGJT 011736Z 0118/0218 24005KT P6SM FEW120 BKN200
     FM012000 24008KT P6SM SCT100 BKN150
     FM012300 16008KT P6SM VCTS BKN100CB
     FM020300 11014KT P6SM BKN100
     FM020900 12007KT P6SM BKN120=



000
FTUS45 KGJT 011736
TAFGJT
TAF
KGJT 011736Z 0118/0218 24005KT P6SM FEW120 BKN200
     FM012000 24008KT P6SM SCT100 BKN150
     FM012300 16008KT P6SM VCTS BKN100CB
     FM020300 11014KT P6SM BKN100
     FM020900 12007KT P6SM BKN120=



000
FTUS45 KGJT 011122
TAFGJT
TAF
KGJT 011122Z 0112/0212 12008KT P6SM FEW120 SCT200
     FM011500 13010KT P6SM FEW120 BKN200
     FM011900 24008KT P6SM SCT100 BKN150
     FM012200 16008KT P6SM VCTS BKN100CB
     FM020300 12012KT P6SM BKN100=



000
FTUS45 KGJT 011122
TAFGJT
TAF
KGJT 011122Z 0112/0212 12008KT P6SM FEW120 SCT200
     FM011500 13010KT P6SM FEW120 BKN200
     FM011900 24008KT P6SM SCT100 BKN150
     FM012200 16008KT P6SM VCTS BKN100CB
     FM020300 12012KT P6SM BKN100=



000
FTUS45 KGJT 011122
TAFGJT
TAF
KGJT 011122Z 0112/0212 12008KT P6SM FEW120 SCT200
     FM011500 13010KT P6SM FEW120 BKN200
     FM011900 24008KT P6SM SCT100 BKN150
     FM012200 16008KT P6SM VCTS BKN100CB
     FM020300 12012KT P6SM BKN100=



000
FTUS45 KGJT 011122
TAFGJT
TAF
KGJT 011122Z 0112/0212 12008KT P6SM FEW120 SCT200
     FM011500 13010KT P6SM FEW120 BKN200
     FM011900 24008KT P6SM SCT100 BKN150
     FM012200 16008KT P6SM VCTS BKN100CB
     FM020300 12012KT P6SM BKN100=



000
FTUS45 KGJT 010531
TAFGJT
TAF
KGJT 010531Z 0106/0206 12008KT P6SM FEW120 SCT200
     FM011500 13010KT P6SM FEW120 BKN200
     FM011900 18008KT P6SM SCT100 BKN150
     FM012200 15008KT P6SM VCTS BKN100CB
     FM020300 11012KT P6SM BKN100=



000
FTUS45 KGJT 010531
TAFGJT
TAF
KGJT 010531Z 0106/0206 12008KT P6SM FEW120 SCT200
     FM011500 13010KT P6SM FEW120 BKN200
     FM011900 18008KT P6SM SCT100 BKN150
     FM012200 15008KT P6SM VCTS BKN100CB
     FM020300 11012KT P6SM BKN100=



000
FTUS45 KGJT 312337
TAFGJT
TAF
KGJT 312337Z 0100/0124 23008KT P6SM SCT150
     FM010200 06008KT P6SM SCT120 SCT200
     FM010600 12008KT P6SM SCT120 SCT200
     FM011500 15006KT P6SM SCT120 BKN200
     FM011900 28008KT P6SM SCT100 BKN150=



000
FTUS45 KGJT 312337
TAFGJT
TAF
KGJT 312337Z 0100/0124 23008KT P6SM SCT150
     FM010200 06008KT P6SM SCT120 SCT200
     FM010600 12008KT P6SM SCT120 SCT200
     FM011500 15006KT P6SM SCT120 BKN200
     FM011900 28008KT P6SM SCT100 BKN150=



000
FTUS45 KGJT 312337
TAFGJT
TAF
KGJT 312337Z 0100/0124 23008KT P6SM SCT150
     FM010200 06008KT P6SM SCT120 SCT200
     FM010600 12008KT P6SM SCT120 SCT200
     FM011500 15006KT P6SM SCT120 BKN200
     FM011900 28008KT P6SM SCT100 BKN150=



000
FTUS45 KGJT 312337
TAFGJT
TAF
KGJT 312337Z 0100/0124 23008KT P6SM SCT150
     FM010200 06008KT P6SM SCT120 SCT200
     FM010600 12008KT P6SM SCT120 SCT200
     FM011500 15006KT P6SM SCT120 BKN200
     FM011900 28008KT P6SM SCT100 BKN150=



000
FTUS45 KGJT 311729
TAFGJT
TAF
KGJT 311729Z 3118/0118 VRB05KT P6SM FEW150 SCT200
     FM311900 28008KT P6SM SCT150 SCT200
     FM010200 11008KT P6SM SCT120 SCT250
     FM011500 15006KT P6SM SCT120 BKN200=



000
FTUS45 KGJT 311729
TAFGJT
TAF
KGJT 311729Z 3118/0118 VRB05KT P6SM FEW150 SCT200
     FM311900 28008KT P6SM SCT150 SCT200
     FM010200 11008KT P6SM SCT120 SCT250
     FM011500 15006KT P6SM SCT120 BKN200=



000
FTUS45 KGJT 311729
TAFGJT
TAF
KGJT 311729Z 3118/0118 VRB05KT P6SM FEW150 SCT200
     FM311900 28008KT P6SM SCT150 SCT200
     FM010200 11008KT P6SM SCT120 SCT250
     FM011500 15006KT P6SM SCT120 BKN200=



000
FTUS45 KGJT 311729
TAFGJT
TAF
KGJT 311729Z 3118/0118 VRB05KT P6SM FEW150 SCT200
     FM311900 28008KT P6SM SCT150 SCT200
     FM010200 11008KT P6SM SCT120 SCT250
     FM011500 15006KT P6SM SCT120 BKN200=



000
FTUS45 KGJT 311120
TAFGJT
TAF
KGJT 311120Z 3112/0112 13006KT P6SM SKC
     FM311900 29008KT P6SM FEW120 SCT250
     FM010200 11008KT P6SM SCT250=



000
FTUS45 KGJT 311120
TAFGJT
TAF
KGJT 311120Z 3112/0112 13006KT P6SM SKC
     FM311900 29008KT P6SM FEW120 SCT250
     FM010200 11008KT P6SM SCT250=



000
FTUS45 KGJT 310530
TAFGJT
TAF
KGJT 310530Z 3106/0106 11006KT P6SM SKC
     FM311400 15008KT P6SM SKC
     FM311900 29008KT P6SM FEW120 SCT250
     FM010200 11007KT P6SM SCT250=



000
FTUS45 KGJT 310530
TAFGJT
TAF
KGJT 310530Z 3106/0106 11006KT P6SM SKC
     FM311400 15008KT P6SM SKC
     FM311900 29008KT P6SM FEW120 SCT250
     FM010200 11007KT P6SM SCT250=



000
FTUS45 KGJT 302338
TAFGJT
TAF
KGJT 302338Z 3100/3124 28008KT P6SM FEW200
     FM310300 06005KT P6SM SKC
     FM310600 11006KT P6SM SKC
     FM311400 15008KT P6SM SCT200
     FM311900 29010KT P6SM SCT120 BKN200=



000
FTUS45 KGJT 302338
TAFGJT
TAF
KGJT 302338Z 3100/3124 28008KT P6SM FEW200
     FM310300 06005KT P6SM SKC
     FM310600 11006KT P6SM SKC
     FM311400 15008KT P6SM SCT200
     FM311900 29010KT P6SM SCT120 BKN200=



000
FTUS45 KGJT 301720
TAFGJT
TAF
KGJT 301720Z 3018/3118 13006KT P6SM SCT250
     FM302000 28008KT P6SM FEW200
     FM310300 06005KT P6SM SKC
     FM310600 11006KT P6SM SKC
     FM311400 15010KT P6SM SKC=



000
FTUS45 KGJT 301720
TAFGJT
TAF
KGJT 301720Z 3018/3118 13006KT P6SM SCT250
     FM302000 28008KT P6SM FEW200
     FM310300 06005KT P6SM SKC
     FM310600 11006KT P6SM SKC
     FM311400 15010KT P6SM SKC=



000
FTUS45 KGJT 301720
TAFGJT
TAF
KGJT 301720Z 3018/3118 13006KT P6SM SCT250
     FM302000 28008KT P6SM FEW200
     FM310300 06005KT P6SM SKC
     FM310600 11006KT P6SM SKC
     FM311400 15010KT P6SM SKC=



000
FTUS45 KGJT 301720
TAFGJT
TAF
KGJT 301720Z 3018/3118 13006KT P6SM SCT250
     FM302000 28008KT P6SM FEW200
     FM310300 06005KT P6SM SKC
     FM310600 11006KT P6SM SKC
     FM311400 15010KT P6SM SKC=



000
FTUS45 KGJT 301130
TAFGJT
TAF
KGJT 301130Z 3012/3112 13006KT P6SM SCT250
     FM302000 28008KT P6SM FEW200
     FM310300 06005KT P6SM SKC
     FM310600 11006KT P6SM SKC=



000
FTUS45 KGJT 301130
TAFGJT
TAF
KGJT 301130Z 3012/3112 13006KT P6SM SCT250
     FM302000 28008KT P6SM FEW200
     FM310300 06005KT P6SM SKC
     FM310600 11006KT P6SM SKC=



000
FTUS45 KGJT 301130
TAFGJT
TAF
KGJT 301130Z 3012/3112 13006KT P6SM SCT250
     FM302000 28008KT P6SM FEW200
     FM310300 06005KT P6SM SKC
     FM310600 11006KT P6SM SKC=



000
FTUS45 KGJT 301130
TAFGJT
TAF
KGJT 301130Z 3012/3112 13006KT P6SM SCT250
     FM302000 28008KT P6SM FEW200
     FM310300 06005KT P6SM SKC
     FM310600 11006KT P6SM SKC=



000
FTUS45 KGJT 300523
TAFGJT
TAF
KGJT 300523Z 3006/3106 19005KT P6SM SCT250
     FM300900 11006KT P6SM SCT250
     FM302000 30008KT P6SM SCT250
     FM310300 18005KT P6SM SCT250=



000
FTUS45 KGJT 300523
TAFGJT
TAF
KGJT 300523Z 3006/3106 19005KT P6SM SCT250
     FM300900 11006KT P6SM SCT250
     FM302000 30008KT P6SM SCT250
     FM310300 18005KT P6SM SCT250=



000
FTUS45 KGJT 300523
TAFGJT
TAF
KGJT 300523Z 3006/3106 19005KT P6SM SCT250
     FM300900 11006KT P6SM SCT250
     FM302000 30008KT P6SM SCT250
     FM310300 18005KT P6SM SCT250=



000
FTUS45 KGJT 300523
TAFGJT
TAF
KGJT 300523Z 3006/3106 19005KT P6SM SCT250
     FM300900 11006KT P6SM SCT250
     FM302000 30008KT P6SM SCT250
     FM310300 18005KT P6SM SCT250=



000
FTUS45 KGJT 292335
TAFGJT
TAF
KGJT 292335Z 3000/3024 30008G18KT P6SM SCT250
     FM300300 04005KT P6SM SCT250
     FM300900 11006KT P6SM SCT250
     FM302000 30008KT P6SM SCT250=



000
FTUS45 KGJT 292335
TAFGJT
TAF
KGJT 292335Z 3000/3024 30008G18KT P6SM SCT250
     FM300300 04005KT P6SM SCT250
     FM300900 11006KT P6SM SCT250
     FM302000 30008KT P6SM SCT250=



    US Dept of Commerce
    National Oceanic and Atmospheric Administration
    National Weather Service
    1325 East West Highway
    Silver Spring, MD 20910
    Page Author: NWS Internet Services Team
Disclaimer
Information Quality
Credits
Glossary
Privacy Policy
Freedom of Information Act (FOIA)
About Us
Career Opportunities